Terminal Aerodrome Forecast
Issued by NWS

Home | Current Version | Previous Version | Text Only | Print | Product List | Glossary On
Versions: 1 2 3 4 5 6 7 8 9 10 11 12 13
000
FTUS42 KGSP 211731
TAFHKY
TAF
KHKY 211731Z 2118/2218 15002KT P6SM FEW250
     FM221200 VRB02KT P6SM SCT250
     FM221500 14005KT P6SM SCT210=

USA.gov is the U.S. government's official web portal to all federal, state and local government web resources and services.